createdAt,value
2023-02-24T00:00:38.562Z,33.42
2023-02-24T00:03:11.541Z,32.88
2023-02-24T00:05:44.383Z,35.00
2023-02-24T00:08:13.965Z,36.97
2023-02-24T00:10:41.995Z,36.15
2023-02-24T00:13:12.009Z,36.35
2023-02-24T00:15:40.021Z,34.88
2023-02-24T00:18:08.622Z,35.72
2023-02-24T00:20:37.434Z,36.88
2023-02-24T00:23:05.490Z,39.72
2023-02-24T00:25:34.815Z,36.40
2023-02-24T00:28:02.763Z,35.85
2023-02-24T00:30:33.046Z,35.28
2023-02-24T00:33:03.496Z,34.47
2023-02-24T00:35:32.219Z,37.67
2023-02-24T00:38:00.864Z,34.67
2023-02-24T00:40:30.806Z,37.55
2023-02-24T00:43:02.122Z,39.00
2023-02-24T00:45:30.997Z,36.05
2023-02-24T00:47:59.094Z,36.08
2023-02-24T00:50:27.351Z,37.38
2023-02-24T00:52:55.272Z,39.85
2023-02-24T00:55:23.364Z,36.50
2023-02-24T00:57:51.929Z,35.55
2023-02-24T01:00:23.475Z,38.47
2023-02-24T01:02:52.314Z,37.40
2023-02-24T01:05:21.201Z,36.25
2023-02-24T01:07:49.184Z,36.53
2023-02-24T01:10:18.345Z,36.60
2023-02-24T01:12:51.062Z,40.67
2023-02-24T01:15:23.147Z,36.22
2023-02-24T01:17:51.276Z,37.95
2023-02-24T01:20:19.684Z,39.15
2023-02-24T01:22:49.602Z,36.78
2023-02-24T01:25:19.979Z,36.40
2023-02-24T01:27:48.064Z,32.92
2023-02-24T01:30:17.598Z,34.28
2023-02-24T01:32:48.206Z,35.38
2023-02-24T01:35:17.700Z,33.78
2023-02-24T01:37:45.917Z,30.95
2023-02-24T01:40:20.959Z,33.90
2023-02-24T01:42:50.581Z,34.10
2023-02-24T01:45:22.831Z,33.05
2023-02-24T01:47:54.091Z,34.15
2023-02-24T01:50:26.138Z,32.28
2023-02-24T01:52:58.865Z,31.10
2023-02-24T01:55:32.096Z,34.08
2023-02-24T01:58:04.998Z,31.33
2023-02-24T02:00:37.837Z,34.00
2023-02-24T02:03:20.161Z,35.42
2023-02-24T02:05:49.228Z,34.33
2023-02-24T02:08:19.570Z,35.40
2023-02-24T02:10:48.882Z,35.00
2023-02-24T02:13:21.193Z,33.83
2023-02-24T02:16:04.017Z,36.40
2023-02-24T02:18:43.343Z,31.30
2023-02-24T02:21:36.343Z,33.35
2023-02-24T02:24:21.038Z,33.58
2023-02-24T02:27:23.349Z,33.17
2023-02-24T02:30:24.508Z,34.25
2023-02-24T02:33:27.547Z,33.10
2023-02-24T02:36:07.332Z,28.75
2023-02-24T02:38:43.778Z,32.72
2023-02-24T02:41:21.874Z,32.53
2023-02-24T02:43:54.626Z,34.13
2023-02-24T02:46:34.933Z,33.20
2023-02-24T02:49:14.924Z,35.40
2023-02-24T02:51:51.711Z,34.00
2023-02-24T02:54:27.140Z,31.23
2023-02-24T02:57:01.411Z,31.92
2023-02-24T02:59:32.324Z,32.58
2023-02-24T03:02:11.761Z,31.95
2023-02-24T03:04:43.482Z,31.38
2023-02-24T03:07:17.786Z,32.88
2023-02-24T03:09:51.802Z,33.05
2023-02-24T03:12:22.933Z,32.45
2023-02-24T03:14:59.138Z,28.85
2023-02-24T03:17:31.757Z,32.03
2023-02-24T03:20:15.519Z,31.45
2023-02-24T03:22:50.031Z,30.35
2023-02-24T03:25:24.112Z,30.20
2023-02-24T03:27:57.550Z,30.80
2023-02-24T03:30:33.364Z,32.00
2023-02-24T03:33:06.389Z,31.52
2023-02-24T03:35:39.895Z,31.60
2023-02-24T03:38:10.583Z,32.22
2023-02-24T03:40:39.403Z,30.42
2023-02-24T03:43:16.956Z,36.03
2023-02-24T03:45:46.650Z,31.42
2023-02-24T03:48:14.934Z,33.67
2023-02-24T03:50:46.785Z,33.22
2023-02-24T03:53:49.233Z,31.10
2023-02-24T03:56:29.787Z,28.98
2023-02-24T03:59:13.064Z,30.95
2023-02-24T04:01:49.803Z,30.67
2023-02-24T04:04:27.471Z,30.05
2023-02-24T04:07:10.532Z,32.90
2023-02-24T04:09:44.185Z,32.55
2023-02-24T04:12:22.455Z,29.83
2023-02-24T04:15:15.468Z,34.08
2023-02-24T04:17:49.433Z,29.75
2023-02-24T04:20:20.616Z,30.63
2023-02-24T04:22:59.888Z,28.80
2023-02-24T04:25:31.113Z,31.90
2023-02-24T04:28:01.951Z,33.15
2023-02-24T04:30:35.104Z,31.60
2023-02-24T04:33:03.851Z,32.67
2023-02-24T04:35:33.104Z,31.20
2023-02-24T04:38:02.096Z,29.80
2023-02-24T04:40:31.778Z,33.55
2023-02-24T04:43:00.033Z,32.88
2023-02-24T04:45:31.121Z,32.60
2023-02-24T04:48:02.216Z,33.20
2023-02-24T04:50:32.979Z,33.05
2023-02-24T04:53:03.089Z,31.25
2023-02-24T04:55:34.073Z,32.78
2023-02-24T04:58:03.001Z,30.10
2023-02-24T05:00:35.843Z,31.52
2023-02-24T05:03:05.945Z,32.50
2023-02-24T05:05:34.301Z,38.60
2023-02-24T05:08:03.969Z,41.22
2023-02-24T05:10:38.907Z,42.47
2023-02-24T05:13:09.138Z,44.03
2023-02-24T05:15:41.168Z,40.88
2023-02-24T05:18:14.072Z,43.22
2023-02-24T05:21:01.951Z,46.35
2023-02-24T05:23:33.398Z,40.88
2023-02-24T05:26:08.357Z,39.95
2023-02-24T05:28:37.066Z,40.40
2023-02-24T05:31:08.420Z,44.47
2023-02-24T05:33:37.863Z,44.30
2023-02-24T05:36:08.611Z,43.15
2023-02-24T05:38:38.222Z,43.92
2023-02-24T05:41:09.119Z,39.20
2023-02-24T05:43:39.770Z,40.05
2023-02-24T05:46:07.727Z,46.00
2023-02-24T05:48:36.083Z,43.80
2023-02-24T05:51:08.025Z,43.10
2023-02-24T05:53:36.570Z,41.13
2023-02-24T05:56:05.968Z,44.35
2023-02-24T05:58:36.493Z,43.50
2023-02-24T06:01:16.216Z,45.08
2023-02-24T06:03:47.958Z,45.17
2023-02-24T06:06:16.765Z,44.08
2023-02-24T06:08:50.135Z,43.92
2023-02-24T06:11:20.833Z,41.97
2023-02-24T06:13:50.650Z,45.15
2023-02-24T06:16:19.708Z,41.88
2023-02-24T06:18:50.511Z,41.08
2023-02-24T06:21:19.363Z,42.10
2023-02-24T06:23:47.448Z,40.47
2023-02-24T06:26:19.477Z,41.95
2023-02-24T06:28:49.994Z,40.58
2023-02-24T06:31:21.544Z,40.92
2023-02-24T06:33:50.110Z,39.97
2023-02-24T06:36:18.107Z,38.00
2023-02-24T06:38:46.220Z,37.65
2023-02-24T06:41:14.273Z,36.60
2023-02-24T06:43:44.144Z,39.83
2023-02-24T06:46:16.757Z,34.90
2023-02-24T06:48:48.196Z,35.63
2023-02-24T06:51:17.657Z,37.50
2023-02-24T06:53:45.939Z,36.03
2023-02-24T06:56:19.892Z,35.45
2023-02-24T06:58:52.106Z,36.47
2023-02-24T07:01:22.304Z,34.70
2023-02-24T07:04:17.741Z,33.88
2023-02-24T07:06:49.489Z,31.52
2023-02-24T07:09:19.673Z,33.30
2023-02-24T07:11:52.215Z,35.53
2023-02-24T07:14:21.866Z,33.35
2023-02-24T07:16:54.622Z,33.67
2023-02-24T07:19:27.169Z,29.60
2023-02-24T07:22:00.403Z,31.52
2023-02-24T07:24:33.166Z,31.40
2023-02-24T07:27:03.194Z,30.10
2023-02-24T07:29:33.466Z,31.70
2023-02-24T07:32:03.767Z,33.70
2023-02-24T07:34:34.922Z,31.10
2023-02-24T07:37:08.128Z,35.10
2023-02-24T07:39:37.584Z,36.20
2023-02-24T07:42:06.317Z,36.05
2023-02-24T07:44:46.765Z,37.55
2023-02-24T07:47:16.006Z,33.35
2023-02-24T07:49:45.860Z,30.08
2023-02-24T07:52:13.874Z,37.95
2023-02-24T07:54:41.969Z,36.47
2023-02-24T07:57:13.966Z,34.63
2023-02-24T07:59:45.511Z,28.70
2023-02-24T08:02:14.182Z,20.80
2023-02-24T08:04:48.243Z,30.05
2023-02-24T08:07:17.844Z,26.08
2023-02-24T08:10:08.668Z,25.13
2023-02-24T08:12:42.640Z,21.48
2023-02-24T08:15:18.140Z,26.02
2023-02-24T08:17:47.578Z,28.52
2023-02-24T08:20:29.919Z,25.45
2023-02-24T08:22:59.534Z,26.77
2023-02-24T08:25:35.787Z,26.15
2023-02-24T08:28:09.454Z,25.58
2023-02-24T08:30:39.985Z,19.08
2023-02-24T08:33:11.204Z,24.58
2023-02-24T08:35:44.781Z,24.10
2023-02-24T08:38:17.319Z,20.17
2023-02-24T08:40:52.108Z,40.40
2023-02-24T08:43:32.784Z,36.38
2023-02-24T08:46:05.582Z,27.88
2023-02-24T08:48:42.366Z,32.92
2023-02-24T08:51:17.705Z,27.30
2023-02-24T08:53:47.651Z,28.20
2023-02-24T08:56:24.267Z,21.35
2023-02-24T08:58:57.162Z,23.60
2023-02-24T09:01:34.378Z,24.95
2023-02-24T09:04:04.650Z,20.30
2023-02-24T09:06:39.703Z,19.02
2023-02-24T09:09:18.658Z,21.23
2023-02-24T09:11:48.132Z,19.58
2023-02-24T09:14:26.446Z,20.83
2023-02-24T09:17:07.175Z,22.20
2023-02-24T09:19:58.340Z,21.73
2023-02-24T09:22:40.998Z,23.42
2023-02-24T09:25:29.180Z,24.30
2023-02-24T09:28:08.394Z,26.90
2023-02-24T09:30:39.245Z,28.77
2023-02-24T09:33:18.639Z,30.58
2023-02-24T09:36:09.928Z,32.65
2023-02-24T09:38:57.542Z,30.17
2023-02-24T09:41:53.477Z,21.75
2023-02-24T09:44:27.130Z,18.50
2023-02-24T09:47:08.892Z,22.38
2023-02-24T09:49:50.751Z,22.55
2023-02-24T09:52:20.123Z,23.17
2023-02-24T09:55:10.820Z,20.42
2023-02-24T09:58:11.982Z,18.75
2023-02-24T10:00:44.976Z,22.60
2023-02-24T10:03:41.609Z,20.75
2023-02-24T10:06:20.988Z,22.25
2023-02-24T10:08:59.137Z,25.60
2023-02-24T10:11:33.968Z,24.20
2023-02-24T10:14:07.046Z,34.22
2023-02-24T10:16:46.293Z,32.85
2023-02-24T10:19:26.762Z,46.97
2023-02-24T10:22:03.047Z,42.22
2023-02-24T10:24:38.198Z,48.83
2023-02-24T10:27:16.676Z,38.95
2023-02-24T10:30:05.812Z,27.70
2023-02-24T10:32:43.328Z,26.25
2023-02-24T10:35:16.716Z,24.38
2023-02-24T10:37:45.103Z,23.25
2023-02-24T10:40:24.893Z,21.92
2023-02-24T10:43:03.833Z,21.55
2023-02-24T10:45:45.140Z,18.88
2023-02-24T10:48:40.193Z,21.42
2023-02-24T10:51:20.186Z,18.00
2023-02-24T10:54:10.172Z,17.20
2023-02-24T10:56:44.617Z,20.60
2023-02-24T10:59:32.965Z,23.08
2023-02-24T11:02:24.748Z,23.42
2023-02-24T11:05:04.622Z,22.90
2023-02-24T11:07:45.275Z,22.98
2023-02-24T11:10:26.094Z,21.83
2023-02-24T11:13:18.979Z,22.83
2023-02-24T11:16:07.431Z,24.30
2023-02-24T11:18:38.821Z,24.25
2023-02-24T11:21:09.975Z,22.60
2023-02-24T11:23:43.165Z,24.15
2023-02-24T11:26:17.712Z,21.58
2023-02-24T11:28:57.488Z,22.63
2023-02-24T11:31:42.134Z,22.98
2023-02-24T11:34:20.250Z,21.17
2023-02-24T11:36:54.556Z,23.70
2023-02-24T11:39:47.455Z,24.52
2023-02-24T11:42:20.496Z,24.17
2023-02-24T11:44:54.648Z,23.73
2023-02-24T11:47:30.116Z,21.58
2023-02-24T11:50:08.807Z,24.17
2023-02-24T11:52:42.153Z,21.77
2023-02-24T11:55:20.551Z,32.00
2023-02-24T11:57:54.808Z,29.80
2023-02-24T12:00:26.885Z,23.75
2023-02-24T12:03:02.251Z,21.38
2023-02-24T12:05:37.382Z,22.63
2023-02-24T12:08:13.514Z,22.42
2023-02-24T12:10:47.705Z,22.48
2023-02-24T12:13:22.661Z,18.52
2023-02-24T12:16:00.022Z,19.25
2023-02-24T12:18:33.317Z,24.60
2023-02-24T12:21:08.646Z,24.33
2023-02-24T12:23:39.445Z,21.90
2023-02-24T12:26:19.966Z,24.35
2023-02-24T12:29:16.786Z,25.85
2023-02-24T12:31:54.495Z,30.65
2023-02-24T12:34:36.219Z,26.38
2023-02-24T12:37:35.893Z,31.13
2023-02-24T12:40:16.388Z,26.60
2023-02-24T12:42:52.473Z,29.50
2023-02-24T12:45:28.874Z,32.15
2023-02-24T12:48:10.694Z,33.55
2023-02-24T12:50:49.868Z,39.42
2023-02-24T12:53:24.412Z,38.50
2023-02-24T12:56:13.579Z,40.10
2023-02-24T12:58:46.682Z,36.95
2023-02-24T13:01:23.456Z,42.08
2023-02-24T13:04:05.640Z,44.40
2023-02-24T13:06:48.213Z,44.00
2023-02-24T13:09:29.345Z,39.85
2023-02-24T13:12:03.016Z,41.05
2023-02-24T13:14:34.847Z,43.53
2023-02-24T13:17:20.213Z,46.70
2023-02-24T13:19:49.413Z,48.88
2023-02-24T13:22:27.552Z,46.55
2023-02-24T13:25:04.788Z,44.35
2023-02-24T13:27:36.104Z,43.22
2023-02-24T13:30:24.714Z,39.72
2023-02-24T13:33:02.985Z,39.88
2023-02-24T13:35:34.560Z,41.95
2023-02-24T13:38:24.938Z,38.45
2023-02-24T13:40:54.508Z,41.88
2023-02-24T13:43:26.921Z,40.63
2023-02-24T13:45:59.441Z,40.10
2023-02-24T13:48:54.957Z,40.72
2023-02-24T13:51:51.465Z,43.25
2023-02-24T13:54:46.853Z,40.70
2023-02-24T13:57:40.127Z,39.90
2023-02-24T14:00:16.239Z,42.88
2023-02-24T14:02:44.950Z,43.80
2023-02-24T14:05:20.542Z,44.05
2023-02-24T14:07:51.287Z,42.28
2023-02-24T14:10:23.194Z,41.28
2023-02-24T14:13:04.140Z,41.85
2023-02-24T14:15:33.131Z,40.92
2023-02-24T14:18:02.724Z,41.60
2023-02-24T14:20:33.260Z,42.67
2023-02-24T14:23:02.321Z,42.58
2023-02-24T14:25:35.502Z,39.92
2023-02-24T14:28:05.418Z,41.67
2023-02-24T14:30:36.583Z,0.93
2023-02-24T14:33:07.112Z,0.80
2023-02-24T14:35:37.702Z,13.60
2023-02-24T14:38:06.255Z,6.00
2023-02-24T14:40:34.626Z,5.13
2023-02-24T14:43:03.927Z,3.78
2023-02-24T14:45:32.071Z,2.83
2023-02-24T14:48:00.176Z,2.40
2023-02-24T14:50:31.270Z,2.60
2023-02-24T14:53:05.026Z,2.30
2023-02-24T14:55:37.192Z,1.73
2023-02-24T14:58:13.724Z,1.73
2023-02-24T15:00:47.457Z,1.48
2023-02-24T15:03:22.252Z,1.20
2023-02-24T15:05:53.562Z,1.80
2023-02-24T15:08:37.552Z,1.25
2023-02-24T15:11:19.567Z,1.05
2023-02-24T15:13:52.259Z,0.88
2023-02-24T15:16:25.004Z,1.25
2023-02-24T15:18:54.564Z,1.60
2023-02-24T15:21:24.968Z,1.63
2023-02-24T15:24:00.742Z,1.40
2023-02-24T15:26:31.479Z,1.60
2023-02-24T15:29:03.428Z,1.73
2023-02-24T15:31:31.818Z,1.25
2023-02-24T15:34:02.259Z,1.55
2023-02-24T15:36:33.987Z,1.90
2023-02-24T15:39:06.609Z,1.52
2023-02-24T15:41:43.354Z,1.60
2023-02-24T15:44:27.165Z,1.10
2023-02-24T15:46:56.025Z,1.00
2023-02-24T15:49:24.007Z,1.52
2023-02-24T15:51:53.857Z,1.20
2023-02-24T15:54:29.209Z,1.13
2023-02-24T15:56:59.239Z,1.25
2023-02-24T15:59:29.472Z,1.25
2023-02-24T16:01:57.694Z,1.30
2023-02-24T16:04:27.521Z,0.80
2023-02-24T16:06:58.696Z,0.88
2023-02-24T16:09:33.525Z,1.00
2023-02-24T16:12:03.474Z,0.70
2023-02-24T16:14:34.076Z,0.73
2023-02-24T16:17:03.728Z,0.70
2023-02-24T16:19:31.665Z,1.27
2023-02-24T16:21:59.606Z,1.05
2023-02-24T16:24:27.616Z,0.80
2023-02-24T16:26:55.604Z,0.82
2023-02-24T16:29:23.627Z,0.85
2023-02-24T16:31:53.183Z,0.90
2023-02-24T16:34:21.423Z,0.60
2023-02-24T16:36:49.504Z,0.75
2023-02-24T16:39:17.576Z,0.88
2023-02-24T16:41:45.506Z,0.80
2023-02-24T16:44:14.310Z,0.68
2023-02-24T16:46:45.652Z,0.75
2023-02-24T16:49:21.066Z,1.15
2023-02-24T16:51:49.101Z,0.70
2023-02-24T16:54:17.063Z,0.77
2023-02-24T16:56:45.334Z,0.55
2023-02-24T16:59:13.330Z,0.68
2023-02-24T17:01:41.541Z,0.70
2023-02-24T17:04:11.060Z,0.80
2023-02-24T17:06:40.494Z,0.82
2023-02-24T17:09:08.554Z,0.70
2023-02-24T17:11:36.456Z,0.80
2023-02-24T17:14:04.565Z,0.60
2023-02-24T17:16:32.718Z,1.15
2023-02-24T17:19:00.776Z,0.52
2023-02-24T17:21:28.820Z,0.98
2023-02-24T17:23:58.171Z,0.70
2023-02-24T17:26:26.392Z,0.85
2023-02-24T17:28:54.399Z,0.90
2023-02-24T17:31:22.969Z,0.82
2023-02-24T17:33:51.112Z,0.73
2023-02-24T17:36:19.526Z,0.98
2023-02-24T17:38:47.628Z,0.88
2023-02-24T17:41:17.013Z,0.88
2023-02-24T17:43:45.085Z,1.02
2023-02-24T17:46:13.124Z,0.90
2023-02-24T17:48:41.279Z,0.90
2023-02-24T17:51:13.566Z,0.80
2023-02-24T17:53:41.757Z,1.08
2023-02-24T17:56:10.550Z,1.10
2023-02-24T17:58:40.489Z,0.80
2023-02-24T18:01:08.910Z,0.80
2023-02-24T18:03:37.681Z,0.70
2023-02-24T18:06:08.651Z,0.90
2023-02-24T18:08:38.620Z,0.80
2023-02-24T18:11:08.305Z,0.98
2023-02-24T18:13:36.375Z,0.80
2023-02-24T18:16:09.640Z,0.90
2023-02-24T18:18:37.712Z,0.75
2023-02-24T18:21:07.027Z,0.63
2023-02-24T18:23:35.092Z,0.90
2023-02-24T18:26:03.849Z,0.90
2023-02-24T18:28:31.931Z,1.05
2023-02-24T18:31:00.651Z,0.90
2023-02-24T18:33:30.589Z,0.82
2023-02-24T18:35:59.813Z,0.93
2023-02-24T18:38:27.835Z,0.90
2023-02-24T18:40:59.869Z,0.90
2023-02-24T18:43:28.032Z,0.80
2023-02-24T18:45:59.993Z,0.75
2023-02-24T18:48:30.944Z,0.85
2023-02-24T18:50:59.574Z,0.70
2023-02-24T18:53:29.416Z,0.82
2023-02-24T18:56:01.756Z,0.85
2023-02-24T18:58:30.034Z,0.68
2023-02-24T19:00:58.075Z,0.75
2023-02-24T19:03:26.337Z,0.98
2023-02-24T19:05:55.734Z,0.80
2023-02-24T19:08:23.768Z,0.60
2023-02-24T19:10:51.753Z,0.77
2023-02-24T19:13:19.691Z,0.60
2023-02-24T19:15:48.390Z,0.70
2023-02-24T19:18:17.022Z,0.70
2023-02-24T19:20:45.256Z,1.17
2023-02-24T19:23:14.660Z,0.82
2023-02-24T19:25:42.748Z,1.13
2023-02-24T19:28:10.743Z,0.65
2023-02-24T19:30:39.987Z,0.70
2023-02-24T19:33:09.622Z,0.70
2023-02-24T19:35:41.669Z,0.63
2023-02-24T19:38:10.137Z,0.60
2023-02-24T19:40:39.438Z,0.70
2023-02-24T19:43:07.627Z,0.50
2023-02-24T19:45:35.704Z,0.65
2023-02-24T19:48:03.768Z,0.60
2023-02-24T19:50:31.815Z,0.70
2023-02-24T19:52:59.708Z,0.70
2023-02-24T19:55:27.813Z,0.77
2023-02-24T19:57:57.188Z,0.80
2023-02-24T20:00:25.237Z,0.52
2023-02-24T20:02:53.374Z,0.90
2023-02-24T20:05:21.345Z,0.77
2023-02-24T20:07:49.449Z,0.60
2023-02-24T20:10:18.988Z,0.73
2023-02-24T20:12:46.940Z,0.88
2023-02-24T20:15:16.528Z,0.60
2023-02-24T20:17:44.487Z,0.90
2023-02-24T20:20:13.442Z,0.88
2023-02-24T20:22:41.385Z,0.70
2023-02-24T20:25:10.711Z,0.60
2023-02-24T20:27:38.694Z,1.13
2023-02-24T20:30:07.519Z,0.77
2023-02-24T20:32:37.047Z,0.82
2023-02-24T20:35:05.350Z,0.70
2023-02-24T20:37:33.426Z,0.70
2023-02-24T20:40:01.385Z,0.88
2023-02-24T20:42:29.380Z,0.65
2023-02-24T20:44:57.531Z,0.73
2023-02-24T20:47:25.527Z,1.02
2023-02-24T20:49:55.045Z,0.63
2023-02-24T20:52:23.236Z,0.60
2023-02-24T20:54:51.392Z,0.73
2023-02-24T20:57:19.312Z,0.70
2023-02-24T21:00:01.546Z,0.50
2023-02-24T21:02:31.164Z,0.80
2023-02-24T21:05:00.714Z,0.82
2023-02-24T21:07:28.817Z,0.93
2023-02-24T21:09:56.876Z,0.80
2023-02-24T21:12:24.970Z,0.65
2023-02-24T21:14:53.119Z,0.98
2023-02-24T21:17:21.104Z,0.90
2023-02-24T21:19:49.818Z,0.75
2023-02-24T21:22:19.310Z,0.82
2023-02-24T21:24:47.356Z,0.60
2023-02-24T21:27:15.413Z,0.70
2023-02-24T21:29:43.660Z,0.60
2023-02-24T21:32:11.843Z,0.88
2023-02-24T21:34:39.891Z,0.80
2023-02-24T21:37:07.920Z,0.60
2023-02-24T21:39:37.358Z,0.90
2023-02-24T21:42:07.419Z,0.93
2023-02-24T21:44:35.384Z,0.68
2023-02-24T21:47:03.345Z,0.80
2023-02-24T21:49:31.403Z,1.05
2023-02-24T21:51:59.411Z,0.73
2023-02-24T21:54:27.802Z,0.75
2023-02-24T21:56:57.220Z,0.85
2023-02-24T21:59:25.227Z,1.05
2023-02-24T22:01:54.287Z,0.73
2023-02-24T22:04:23.328Z,0.52
2023-02-24T22:06:51.289Z,0.93
2023-02-24T22:09:20.234Z,0.88
2023-02-24T22:11:50.000Z,0.65
2023-02-24T22:14:19.402Z,0.80
2023-02-24T22:16:47.447Z,0.60
2023-02-24T22:19:15.696Z,0.90
2023-02-24T22:21:43.831Z,0.68
2023-02-24T22:24:14.505Z,0.70
2023-02-24T22:26:43.418Z,0.50
2023-02-24T22:29:11.646Z,0.90
2023-02-24T22:31:43.608Z,0.80
2023-02-24T22:34:13.131Z,0.93
2023-02-24T22:36:41.432Z,0.80
2023-02-24T22:39:09.625Z,0.80
2023-02-24T22:41:38.304Z,0.75
2023-02-24T22:44:07.444Z,0.80
2023-02-24T22:46:37.771Z,0.55
2023-02-24T22:49:07.700Z,0.75
2023-02-24T22:51:35.674Z,0.70
2023-02-24T22:54:03.806Z,0.80
2023-02-24T22:56:32.647Z,0.80
2023-02-24T22:59:00.775Z,0.65
2023-02-24T23:01:31.068Z,0.90
2023-02-24T23:04:01.828Z,0.70
2023-02-24T23:06:31.822Z,1.17
2023-02-24T23:09:01.592Z,1.15
2023-02-24T23:11:32.227Z,1.10
2023-02-24T23:14:02.101Z,1.10
2023-02-24T23:16:32.324Z,0.80
2023-02-24T23:19:04.228Z,0.73
2023-02-24T23:21:37.825Z,0.90
2023-02-24T23:24:07.209Z,0.75
2023-02-24T23:26:36.978Z,1.00
2023-02-24T23:29:06.534Z,0.70
2023-02-24T23:31:35.670Z,1.08
2023-02-24T23:34:07.171Z,0.70
2023-02-24T23:36:38.450Z,0.90
2023-02-24T23:39:07.797Z,0.93
2023-02-24T23:41:36.385Z,1.00
2023-02-24T23:44:04.589Z,0.95
2023-02-24T23:46:33.415Z,1.00
2023-02-24T23:49:01.969Z,0.98
2023-02-24T23:51:45.655Z,0.88
2023-02-24T23:54:17.434Z,0.98
2023-02-24T23:56:45.361Z,0.80
2023-02-24T23:59:13.325Z,1.35
